WIDD/BTH METAR and TAF weather

Enter ICAO airport designator
Station Type Date Time Source
WIDD METAR 2021/07/29 13:00 UTC NOAA

WIDD 291300Z 17004KT 9999 FEW014 29/24 Q1011 NOSIG


Station Type Date Time Source
WIDD Decoded METAR 2021/07/29 13:00 UTC NOAA

Station name not available
Jul 29, 2021 - 09:00 AM EDT / 2021.07.29 1300 UTC
Wind: from the S (170 degrees) at 5 MPH (4 KT):0
Visibility: greater than 7 mile(s):0
Sky conditions: mostly clear
Temperature: 84 F (29 C)
Dew Point: 75 F (24 C)
Relative Humidity: 74%
Pressure (altimeter): 29.85 in. Hg (1011 hPa)
ob: WIDD 291300Z 17004KT 9999 FEW014 29/24 Q1011 NOSIG
cycle: 13

Station Type Date Time Source
WIDD TAF 2021/07/29 18:00 UTC NOAA

TAF WIDD 291700Z 2918/3018 13005KT 9999 FEW014=

Example: see airport list